createdAt,value
2022-11-07T00:01:47.010Z,10.80
2022-11-07T00:04:15.609Z,10.80
2022-11-07T00:06:42.753Z,10.80
2022-11-07T00:09:09.808Z,10.80
2022-11-07T00:11:39.288Z,10.80
2022-11-07T00:14:06.180Z,10.80
2022-11-07T00:16:34.386Z,10.90
2022-11-07T00:19:01.412Z,10.80
2022-11-07T00:21:28.489Z,10.80
2022-11-07T00:23:55.832Z,10.90
2022-11-07T00:26:22.864Z,10.80
2022-11-07T00:28:49.996Z,10.90
2022-11-07T00:31:17.564Z,10.90
2022-11-07T00:33:45.172Z,10.90
2022-11-07T00:36:21.061Z,10.80
2022-11-07T00:38:48.706Z,10.80
2022-11-07T00:41:16.114Z,10.90
2022-11-07T00:43:43.988Z,10.90
2022-11-07T00:46:12.522Z,10.90
2022-11-07T00:48:39.597Z,10.80
2022-11-07T00:51:24.462Z,10.80
2022-11-07T00:53:52.222Z,10.80
2022-11-07T00:56:21.965Z,10.80
2022-11-07T00:58:49.003Z,10.80
2022-11-07T01:01:23.012Z,10.80
2022-11-07T01:04:08.729Z,10.80
2022-11-07T01:06:39.357Z,10.80
2022-11-07T01:09:08.850Z,10.80
2022-11-07T01:11:38.847Z,10.80
2022-11-07T01:14:07.770Z,10.80
2022-11-07T01:16:38.007Z,10.80
2022-11-07T01:19:06.224Z,10.80
2022-11-07T01:21:33.900Z,10.80
2022-11-07T01:24:03.678Z,10.80
2022-11-07T01:26:30.868Z,10.70
2022-11-07T01:28:57.908Z,10.80
2022-11-07T01:31:25.049Z,10.80
2022-11-07T01:33:52.454Z,10.80
2022-11-07T01:36:19.454Z,10.80
2022-11-07T01:38:50.475Z,10.70
2022-11-07T01:41:21.349Z,10.80
2022-11-07T01:43:50.548Z,10.80
2022-11-07T01:46:17.898Z,10.80
2022-11-07T01:48:53.624Z,10.80
2022-11-07T01:51:22.750Z,10.80
2022-11-07T01:53:51.554Z,10.80
2022-11-07T01:56:22.105Z,10.80
2022-11-07T01:58:49.118Z,10.80
2022-11-07T02:01:17.195Z,10.80
2022-11-07T02:03:45.665Z,10.90
2022-11-07T02:06:23.228Z,10.90
2022-11-07T02:08:52.084Z,10.80
2022-11-07T02:11:20.251Z,10.90
2022-11-07T02:13:47.343Z,10.80
2022-11-07T02:16:14.396Z,10.90
2022-11-07T02:18:43.630Z,10.90
2022-11-07T02:21:38.017Z,10.90
2022-11-07T02:24:08.220Z,10.90
2022-11-07T02:26:38.341Z,10.90
2022-11-07T02:29:08.951Z,10.90
2022-11-07T02:31:36.022Z,11.00
2022-11-07T02:34:05.461Z,11.00
2022-11-07T02:36:32.773Z,10.90
2022-11-07T02:39:00.628Z,11.00
2022-11-07T02:41:35.858Z,10.90
2022-11-07T02:44:11.381Z,10.90
2022-11-07T02:46:39.858Z,10.90
2022-11-07T02:49:06.840Z,10.90
2022-11-07T02:51:33.743Z,11.00
2022-11-07T02:54:03.661Z,11.00
2022-11-07T02:56:30.679Z,11.00
2022-11-07T02:58:57.597Z,11.00
2022-11-07T03:01:25.350Z,11.00
2022-11-07T03:03:52.492Z,11.00
2022-11-07T03:06:23.510Z,11.00
2022-11-07T03:08:50.870Z,11.00
2022-11-07T03:11:20.966Z,11.00
2022-11-07T03:13:49.375Z,11.00
2022-11-07T03:16:18.962Z,11.10
2022-11-07T03:18:46.034Z,11.10
2022-11-07T03:21:13.438Z,11.10
2022-11-07T03:23:40.765Z,11.10
2022-11-07T03:26:07.884Z,11.10
2022-11-07T03:28:36.945Z,11.10
2022-11-07T03:31:05.035Z,11.10
2022-11-07T03:33:32.187Z,11.10
2022-11-07T03:35:59.190Z,11.10
2022-11-07T03:38:26.196Z,11.10
2022-11-07T03:40:53.261Z,11.10
2022-11-07T03:43:20.167Z,11.20
2022-11-07T03:45:48.267Z,11.10
2022-11-07T03:48:16.428Z,11.20
2022-11-07T03:50:43.407Z,11.10
2022-11-07T03:53:10.288Z,11.20
2022-11-07T03:55:37.379Z,11.30
2022-11-07T03:58:04.414Z,11.20
2022-11-07T04:00:31.762Z,11.20
2022-11-07T04:02:59.098Z,11.20
2022-11-07T04:05:26.184Z,11.20
2022-11-07T04:07:53.051Z,11.30
2022-11-07T04:10:20.021Z,11.30
2022-11-07T04:13:05.631Z,11.30
2022-11-07T04:15:50.950Z,11.30
2022-11-07T04:18:17.837Z,11.30
2022-11-07T04:20:44.814Z,11.30
2022-11-07T04:23:11.822Z,11.30
2022-11-07T04:25:57.915Z,11.30
2022-11-07T04:28:26.545Z,11.30
2022-11-07T04:30:53.388Z,11.30
2022-11-07T04:33:21.885Z,11.30
2022-11-07T04:35:50.428Z,11.30
2022-11-07T04:38:17.633Z,11.30
2022-11-07T04:40:44.656Z,11.30
2022-11-07T04:43:11.761Z,11.30
2022-11-07T04:45:40.348Z,11.40
2022-11-07T04:48:08.936Z,11.30
2022-11-07T04:50:36.895Z,11.40
2022-11-07T04:53:03.769Z,11.40
2022-11-07T04:55:30.854Z,11.40
2022-11-07T04:57:58.629Z,11.40
2022-11-07T05:00:25.681Z,11.40
2022-11-07T05:02:52.742Z,11.40
2022-11-07T05:05:20.327Z,11.40
2022-11-07T05:07:48.335Z,11.40
2022-11-07T05:10:20.468Z,11.40
2022-11-07T05:12:47.865Z,11.40
2022-11-07T05:15:16.036Z,11.40
2022-11-07T05:17:43.353Z,11.50
2022-11-07T05:20:32.071Z,11.50
2022-11-07T05:23:22.181Z,11.50
2022-11-07T05:25:51.152Z,11.50
2022-11-07T05:28:29.157Z,11.50
2022-11-07T05:31:03.841Z,11.50
2022-11-07T05:33:32.505Z,11.50
2022-11-07T05:36:18.818Z,11.50
2022-11-07T05:38:49.474Z,11.50
2022-11-07T05:41:18.391Z,11.40
2022-11-07T05:43:46.471Z,11.50
2022-11-07T05:46:13.854Z,11.50
2022-11-07T05:48:42.115Z,11.50
2022-11-07T05:51:09.551Z,11.50
2022-11-07T05:53:36.600Z,11.50
2022-11-07T05:56:06.172Z,11.50
2022-11-07T05:58:35.683Z,11.50
2022-11-07T06:01:05.879Z,11.50
2022-11-07T06:03:36.099Z,11.50
2022-11-07T06:06:05.306Z,11.50
2022-11-07T06:08:32.366Z,11.50
2022-11-07T06:11:03.807Z,11.60
2022-11-07T06:13:30.764Z,11.60
2022-11-07T06:15:58.407Z,11.60
2022-11-07T06:18:25.643Z,11.60
2022-11-07T06:20:53.058Z,11.60
2022-11-07T06:23:20.432Z,11.60
2022-11-07T06:25:47.614Z,11.60
2022-11-07T06:28:15.161Z,11.70
2022-11-07T06:30:43.179Z,11.60
2022-11-07T06:33:17.330Z,11.70
2022-11-07T06:35:45.446Z,11.60
2022-11-07T06:38:14.425Z,11.60
2022-11-07T06:40:43.227Z,11.60
2022-11-07T06:43:19.500Z,11.60
2022-11-07T06:45:47.883Z,11.60
2022-11-07T06:48:15.170Z,11.50
2022-11-07T06:50:43.293Z,11.50
2022-11-07T06:53:12.525Z,11.50
2022-11-07T06:55:40.165Z,11.50
2022-11-07T06:58:07.155Z,11.50
2022-11-07T07:00:35.889Z,11.50
2022-11-07T07:03:03.601Z,11.40
2022-11-07T07:05:32.292Z,11.50
2022-11-07T07:07:59.789Z,11.50
2022-11-07T07:10:26.791Z,11.50
2022-11-07T07:12:54.086Z,11.50
2022-11-07T07:15:21.169Z,11.50
2022-11-07T07:17:49.457Z,11.50
2022-11-07T07:20:16.541Z,11.50
2022-11-07T07:22:50.420Z,11.50
2022-11-07T07:25:22.444Z,11.50
2022-11-07T07:27:49.424Z,11.50
2022-11-07T07:30:17.783Z,11.50
2022-11-07T07:32:45.094Z,11.60
2022-11-07T07:35:12.041Z,11.60
2022-11-07T07:37:40.422Z,11.60
2022-11-07T07:40:08.185Z,11.60
2022-11-07T07:42:40.072Z,11.60
2022-11-07T07:45:08.550Z,11.60
2022-11-07T07:47:35.560Z,11.60
2022-11-07T07:50:02.516Z,11.70
2022-11-07T07:52:29.421Z,11.70
2022-11-07T07:54:56.432Z,11.70
2022-11-07T07:57:23.392Z,11.70
2022-11-07T07:59:50.631Z,11.80
2022-11-07T08:02:18.167Z,11.80
2022-11-07T08:04:46.542Z,11.80
2022-11-07T08:07:13.949Z,11.80
2022-11-07T08:09:40.927Z,11.90
2022-11-07T08:12:09.357Z,11.90
2022-11-07T08:14:36.689Z,12.00
2022-11-07T08:17:03.982Z,12.00
2022-11-07T08:19:31.071Z,12.10
2022-11-07T08:21:58.150Z,12.10
2022-11-07T08:24:25.358Z,12.10
2022-11-07T08:26:52.461Z,12.20
2022-11-07T08:29:19.611Z,12.20
2022-11-07T08:31:46.603Z,12.20
2022-11-07T08:34:14.960Z,12.20
2022-11-07T08:36:41.905Z,12.20
2022-11-07T08:39:09.167Z,12.20
2022-11-07T08:41:36.079Z,12.30
2022-11-07T08:44:03.222Z,12.30
2022-11-07T08:46:30.987Z,12.30
2022-11-07T08:48:57.946Z,12.40
2022-11-07T08:51:25.325Z,12.40
2022-11-07T08:53:52.449Z,12.40
2022-11-07T08:56:19.762Z,12.40
2022-11-07T08:58:47.465Z,12.40
2022-11-07T09:01:15.907Z,12.40
2022-11-07T09:03:47.476Z,12.40
2022-11-07T09:06:17.957Z,12.50
2022-11-07T09:08:45.673Z,12.50
2022-11-07T09:11:15.767Z,12.50
2022-11-07T09:13:43.450Z,12.50
2022-11-07T09:16:11.466Z,12.50
2022-11-07T09:18:38.923Z,12.50
2022-11-07T09:21:06.910Z,12.50
2022-11-07T09:23:34.429Z,12.60
2022-11-07T09:26:01.548Z,12.60
2022-11-07T09:28:31.508Z,12.60
2022-11-07T09:31:02.736Z,12.70
2022-11-07T09:33:32.194Z,12.70
2022-11-07T09:36:04.931Z,12.80
2022-11-07T09:38:32.977Z,12.80
2022-11-07T09:41:27.906Z,12.90
2022-11-07T09:44:07.198Z,12.90
2022-11-07T09:47:11.635Z,12.90
2022-11-07T09:49:46.042Z,13.00
2022-11-07T09:52:19.835Z,13.00
2022-11-07T09:55:07.514Z,13.10
2022-11-07T09:57:36.259Z,13.10
2022-11-07T10:00:15.212Z,13.10
2022-11-07T10:03:06.959Z,13.10
2022-11-07T10:06:16.788Z,13.10
2022-11-07T10:09:19.132Z,13.10
2022-11-07T10:11:55.284Z,13.10
2022-11-07T10:14:42.670Z,13.10
2022-11-07T10:17:34.136Z,13.10
2022-11-07T10:20:36.157Z,13.10
2022-11-07T10:23:48.384Z,13.10
2022-11-07T10:26:20.508Z,13.10
2022-11-07T10:28:53.024Z,13.20
2022-11-07T10:31:20.157Z,13.20
2022-11-07T10:34:13.332Z,13.20
2022-11-07T10:39:35.977Z,13.30
2022-11-07T10:42:13.722Z,13.30
2022-11-07T10:44:43.092Z,13.40
2022-11-07T10:47:21.465Z,13.40
2022-11-07T10:50:05.609Z,13.40
2022-11-07T10:52:33.095Z,13.40
2022-11-07T10:55:15.679Z,13.50
2022-11-07T10:57:43.819Z,13.50
2022-11-07T11:00:27.805Z,13.60
2022-11-07T11:02:56.394Z,13.60
2022-11-07T11:05:46.168Z,13.70
2022-11-07T11:08:23.046Z,13.80
2022-11-07T11:10:50.964Z,13.80
2022-11-07T11:13:32.349Z,13.80
2022-11-07T11:16:27.416Z,13.80
2022-11-07T11:18:57.916Z,13.80
2022-11-07T11:21:25.530Z,13.90
2022-11-07T11:23:54.361Z,13.90
2022-11-07T11:26:36.632Z,13.90
2022-11-07T11:29:15.216Z,14.00
2022-11-07T11:31:52.936Z,14.00
2022-11-07T11:34:24.811Z,14.00
2022-11-07T11:37:14.584Z,14.00
2022-11-07T11:39:47.459Z,14.10
2022-11-07T11:42:46.890Z,14.20
2022-11-07T11:45:34.190Z,14.20
2022-11-07T11:48:26.748Z,14.20
2022-11-07T11:51:01.025Z,14.20
2022-11-07T11:53:28.543Z,14.20
2022-11-07T11:56:09.819Z,14.20
2022-11-07T11:58:39.928Z,14.30
2022-11-07T12:01:16.696Z,14.30
2022-11-07T12:04:09.685Z,14.40
2022-11-07T12:06:40.114Z,14.40
2022-11-07T12:09:17.083Z,14.50
2022-11-07T12:11:54.046Z,14.60
2022-11-07T12:14:59.910Z,14.60
2022-11-07T12:17:49.444Z,14.60
2022-11-07T12:20:38.035Z,14.60
2022-11-07T12:23:11.537Z,14.60
2022-11-07T12:25:58.529Z,14.60
2022-11-07T12:28:43.980Z,14.50
2022-11-07T12:31:55.367Z,14.50
2022-11-07T12:34:32.728Z,14.50
2022-11-07T12:37:24.200Z,14.40
2022-11-07T12:40:12.707Z,14.40
2022-11-07T12:43:14.898Z,14.40
2022-11-07T12:45:59.312Z,14.40
2022-11-07T12:48:52.376Z,14.40
2022-11-07T12:51:35.868Z,14.40
2022-11-07T12:54:36.489Z,14.40
2022-11-07T12:57:09.730Z,14.40
2022-11-07T12:59:39.678Z,14.40
2022-11-07T13:02:22.115Z,14.40
2022-11-07T13:05:07.787Z,14.40
2022-11-07T13:07:52.102Z,14.40
2022-11-07T13:10:31.295Z,14.40
2022-11-07T13:13:00.853Z,14.40
2022-11-07T13:15:31.820Z,14.40
2022-11-07T13:18:19.917Z,14.40
2022-11-07T13:20:46.983Z,14.40
2022-11-07T13:23:18.894Z,14.40
2022-11-07T13:25:46.627Z,14.50
2022-11-07T13:28:27.568Z,14.60
2022-11-07T13:31:02.414Z,14.70
2022-11-07T13:33:35.313Z,14.70
2022-11-07T13:36:21.268Z,14.80
2022-11-07T13:38:52.868Z,14.80
2022-11-07T13:41:20.106Z,14.80
2022-11-07T13:43:58.007Z,14.70
2022-11-07T13:46:42.826Z,14.70
2022-11-07T13:49:33.607Z,14.70
2022-11-07T13:52:10.207Z,14.60
2022-11-07T13:55:06.834Z,14.60
2022-11-07T13:57:45.583Z,14.60
2022-11-07T14:00:15.736Z,14.70
2022-11-07T14:03:01.609Z,14.70
2022-11-07T14:05:34.772Z,14.70
2022-11-07T14:08:08.281Z,14.80
2022-11-07T14:10:50.475Z,14.70
2022-11-07T14:13:28.564Z,14.70
2022-11-07T14:16:02.715Z,14.70
2022-11-07T14:18:34.124Z,14.70
2022-11-07T14:21:02.303Z,14.70
2022-11-07T14:23:33.076Z,14.70
2022-11-07T14:26:15.478Z,14.60
2022-11-07T14:28:43.256Z,14.60
2022-11-07T14:31:19.668Z,14.60
2022-11-07T14:33:51.413Z,14.60
2022-11-07T14:36:19.266Z,14.60
2022-11-07T14:38:52.020Z,14.50
2022-11-07T14:41:20.943Z,14.50
2022-11-07T14:43:49.626Z,14.50
2022-11-07T14:46:24.240Z,14.50
2022-11-07T14:48:53.384Z,14.50
2022-11-07T14:51:26.433Z,14.40
2022-11-07T14:54:07.646Z,14.40
2022-11-07T14:56:44.331Z,14.40
2022-11-07T14:59:13.950Z,14.40
2022-11-07T15:02:04.636Z,14.40
2022-11-07T15:04:44.544Z,14.40
2022-11-07T15:07:22.755Z,14.30
2022-11-07T15:09:51.649Z,14.40
2022-11-07T15:12:20.539Z,14.30
2022-11-07T15:15:12.278Z,14.30
2022-11-07T15:17:46.449Z,14.20
2022-11-07T15:20:37.635Z,14.20
2022-11-07T15:23:13.739Z,14.10
2022-11-07T15:25:55.276Z,14.20
2022-11-07T15:28:28.241Z,14.10
2022-11-07T15:31:01.731Z,14.10
2022-11-07T15:33:33.040Z,14.10
2022-11-07T15:36:01.723Z,14.10
2022-11-07T15:38:29.985Z,14.10
2022-11-07T15:40:57.243Z,14.10
2022-11-07T15:43:24.287Z,14.10
2022-11-07T15:45:53.109Z,14.10
2022-11-07T15:48:23.230Z,14.10
2022-11-07T15:50:50.442Z,14.10
2022-11-07T15:53:22.947Z,14.10
2022-11-07T15:55:54.116Z,14.10
2022-11-07T15:58:26.716Z,14.10
2022-11-07T16:00:54.242Z,14.10
2022-11-07T16:03:24.406Z,14.10
2022-11-07T16:05:53.390Z,14.10
2022-11-07T16:08:24.512Z,14.10
2022-11-07T16:10:54.961Z,14.10
2022-11-07T16:13:22.071Z,14.20
2022-11-07T16:15:52.360Z,14.20
2022-11-07T16:18:21.948Z,14.20
2022-11-07T16:20:49.468Z,14.20
2022-11-07T16:23:18.447Z,14.20
2022-11-07T16:25:49.800Z,14.20
2022-11-07T16:28:19.651Z,14.20
2022-11-07T16:30:46.886Z,14.20
2022-11-07T16:33:13.993Z,14.20
2022-11-07T16:35:41.348Z,14.20
2022-11-07T16:38:16.391Z,14.20
2022-11-07T16:40:44.112Z,14.20
2022-11-07T16:43:11.063Z,14.20
2022-11-07T16:45:43.421Z,14.20
2022-11-07T16:48:19.455Z,14.20
2022-11-07T16:50:46.696Z,14.20
2022-11-07T16:53:14.424Z,14.20
2022-11-07T16:55:48.224Z,14.30
2022-11-07T16:58:23.882Z,14.30
2022-11-07T17:00:51.844Z,14.20
2022-11-07T17:03:18.810Z,14.30
2022-11-07T17:05:46.841Z,14.20
2022-11-07T17:08:19.352Z,14.30
2022-11-07T17:10:46.851Z,14.30
2022-11-07T17:13:14.219Z,14.30
2022-11-07T17:15:42.188Z,14.20
2022-11-07T17:18:23.546Z,14.20
2022-11-07T17:20:53.443Z,14.20
2022-11-07T17:23:26.820Z,14.20
2022-11-07T17:25:59.861Z,14.10
2022-11-07T17:28:26.753Z,14.10
2022-11-07T17:30:54.058Z,14.10
2022-11-07T17:33:20.989Z,14.10
2022-11-07T17:35:50.011Z,14.00
2022-11-07T17:38:17.583Z,14.10
2022-11-07T17:40:44.882Z,14.10
2022-11-07T17:43:13.367Z,14.10
2022-11-07T17:45:40.990Z,14.10
2022-11-07T17:48:10.440Z,14.10
2022-11-07T17:50:37.470Z,14.10
2022-11-07T17:53:04.592Z,14.10
2022-11-07T17:55:31.596Z,14.00
2022-11-07T17:57:58.599Z,14.00
2022-11-07T18:00:27.650Z,14.00
2022-11-07T18:02:54.840Z,14.00
2022-11-07T18:05:25.581Z,14.00
2022-11-07T18:07:55.858Z,14.00
2022-11-07T18:10:22.848Z,14.10
2022-11-07T18:12:50.255Z,14.00
2022-11-07T18:15:17.286Z,14.10
2022-11-07T18:17:45.620Z,14.10
2022-11-07T18:20:12.651Z,14.10
2022-11-07T18:22:39.646Z,14.10
2022-11-07T18:25:07.683Z,14.10
2022-11-07T18:27:35.355Z,14.10
2022-11-07T18:30:05.519Z,14.10
2022-11-07T18:32:36.159Z,14.10
2022-11-07T18:35:06.212Z,14.10
2022-11-07T18:37:33.899Z,14.10
2022-11-07T18:40:01.083Z,14.10
2022-11-07T18:42:29.107Z,14.20
2022-11-07T18:44:56.184Z,14.20
2022-11-07T18:47:23.287Z,14.10
2022-11-07T18:49:54.156Z,14.10
2022-11-07T18:52:24.241Z,14.10
2022-11-07T18:54:51.788Z,14.10
2022-11-07T18:57:18.940Z,14.10
2022-11-07T18:59:46.446Z,14.10
2022-11-07T19:02:14.248Z,14.00
2022-11-07T19:04:43.624Z,14.00
2022-11-07T19:07:11.066Z,14.00
2022-11-07T19:09:38.230Z,14.00
2022-11-07T19:12:05.474Z,14.00
2022-11-07T19:14:33.542Z,14.00
2022-11-07T19:17:00.747Z,14.00
2022-11-07T19:19:27.686Z,14.00
2022-11-07T19:21:55.194Z,13.90
2022-11-07T19:24:22.474Z,13.90
2022-11-07T19:26:52.219Z,13.80
2022-11-07T19:29:19.206Z,13.80
2022-11-07T19:31:46.449Z,13.80
2022-11-07T19:34:13.911Z,13.80
2022-11-07T19:36:40.812Z,13.70
2022-11-07T19:39:07.853Z,13.70
2022-11-07T19:41:36.408Z,13.70
2022-11-07T19:44:04.720Z,13.70
2022-11-07T19:46:31.665Z,13.70
2022-11-07T19:48:58.712Z,13.60
2022-11-07T19:51:27.417Z,13.60
2022-11-07T19:53:59.576Z,13.60
2022-11-07T19:56:29.793Z,13.60
2022-11-07T19:58:57.408Z,13.60
2022-11-07T20:01:32.598Z,13.70
2022-11-07T20:04:01.163Z,13.70
2022-11-07T20:06:32.350Z,13.60
2022-11-07T20:09:02.901Z,13.60
2022-11-07T20:11:30.668Z,13.70
2022-11-07T20:14:03.295Z,13.70
2022-11-07T20:16:33.984Z,13.70
2022-11-07T20:19:01.772Z,13.70
2022-11-07T20:21:30.750Z,13.70
2022-11-07T20:23:59.603Z,13.70
2022-11-07T20:26:29.613Z,13.70
2022-11-07T20:28:56.905Z,13.70
2022-11-07T20:31:30.820Z,13.70
2022-11-07T20:34:00.257Z,13.70
2022-11-07T20:36:27.667Z,13.80
2022-11-07T20:38:56.156Z,13.80
2022-11-07T20:41:24.070Z,13.80
2022-11-07T20:43:56.050Z,13.80
2022-11-07T20:46:26.219Z,13.80
2022-11-07T20:48:54.225Z,13.80
2022-11-07T20:51:23.601Z,13.80
2022-11-07T20:53:50.945Z,13.80
2022-11-07T20:56:24.245Z,13.90
2022-11-07T20:58:51.742Z,13.90
2022-11-07T21:01:24.693Z,13.80
2022-11-07T21:03:51.869Z,13.90
2022-11-07T21:06:20.907Z,13.90
2022-11-07T21:08:50.668Z,14.00
2022-11-07T21:11:18.993Z,13.90
2022-11-07T21:13:51.529Z,13.90
2022-11-07T21:16:21.857Z,13.90
2022-11-07T21:18:50.861Z,13.90
2022-11-07T21:21:25.306Z,13.90
2022-11-07T21:23:53.957Z,13.90
2022-11-07T21:26:36.552Z,13.90
2022-11-07T21:29:07.112Z,13.90
2022-11-07T21:31:38.695Z,13.90
2022-11-07T21:34:09.391Z,13.90
2022-11-07T21:36:37.477Z,13.90
2022-11-07T21:39:06.058Z,13.90
2022-11-07T21:41:35.532Z,13.80
2022-11-07T21:44:08.966Z,13.80
2022-11-07T21:46:36.237Z,13.80
2022-11-07T21:49:05.630Z,13.80
2022-11-07T21:51:35.955Z,13.80
2022-11-07T21:54:05.169Z,13.80
2022-11-07T21:56:37.939Z,13.70
2022-11-07T21:59:07.892Z,13.70
2022-11-07T22:01:36.521Z,13.70
2022-11-07T22:04:08.007Z,13.70
2022-11-07T22:06:38.014Z,13.70
2022-11-07T22:09:08.451Z,13.60
2022-11-07T22:11:35.559Z,13.60
2022-11-07T22:14:02.963Z,13.60
2022-11-07T22:16:30.381Z,13.60
2022-11-07T22:19:00.166Z,13.50
2022-11-07T22:21:27.668Z,13.50
2022-11-07T22:23:56.304Z,13.50
2022-11-07T22:26:26.467Z,13.50
2022-11-07T22:28:54.315Z,13.40
2022-11-07T22:31:26.958Z,13.40
2022-11-07T22:33:54.991Z,13.30
2022-11-07T22:36:22.557Z,13.30
2022-11-07T22:38:50.255Z,13.30
2022-11-07T22:41:20.061Z,13.20
2022-11-07T22:43:48.403Z,13.10
2022-11-07T22:46:20.269Z,13.10
2022-11-07T22:48:48.968Z,13.10
2022-11-07T22:51:25.003Z,13.00
2022-11-07T22:54:00.403Z,13.00
2022-11-07T22:56:27.698Z,13.00
2022-11-07T22:58:54.752Z,13.00
2022-11-07T23:01:25.049Z,12.90
2022-11-07T23:03:53.484Z,12.80
2022-11-07T23:06:22.076Z,12.80
2022-11-07T23:08:52.189Z,12.80
2022-11-07T23:14:14.816Z,12.60
2022-11-07T23:16:51.650Z,12.60
2022-11-07T23:19:24.622Z,12.60
2022-11-07T23:21:56.249Z,12.60
2022-11-07T23:24:31.267Z,12.60
2022-11-07T23:26:58.199Z,12.50
2022-11-07T23:29:25.404Z,12.50
2022-11-07T23:31:55.219Z,12.50
2022-11-07T23:34:22.956Z,12.50
2022-11-07T23:36:51.000Z,12.50
2022-11-07T23:39:21.662Z,12.40
2022-11-07T23:41:49.173Z,12.40
2022-11-07T23:44:16.322Z,12.40
2022-11-07T23:47:02.613Z,12.40
2022-11-07T23:49:56.217Z,12.40
2022-11-07T23:52:24.407Z,12.40
2022-11-07T23:55:12.956Z,12.30
2022-11-07T23:58:00.390Z,12.30
